createdAt,value
2022-09-06T00:03:01.351Z,1.45
2022-09-06T00:08:00.886Z,1.60
2022-09-06T00:13:07.169Z,1.65
2022-09-06T00:18:06.842Z,1.60
2022-09-06T00:23:06.347Z,1.30
2022-09-06T00:28:06.048Z,1.88
2022-09-06T00:33:04.006Z,1.63
2022-09-06T00:38:02.658Z,1.45
2022-09-06T00:43:12.774Z,1.52
2022-09-06T00:48:10.558Z,1.70
2022-09-06T00:53:08.505Z,1.85
2022-09-06T00:58:06.615Z,1.92
2022-09-06T01:03:05.211Z,1.95
2022-09-06T01:08:17.482Z,1.80
2022-09-06T01:13:42.289Z,1.90
2022-09-06T01:18:50.409Z,2.67
2022-09-06T01:24:12.210Z,2.30
2022-09-06T01:29:17.408Z,2.60
2022-09-06T01:34:22.344Z,2.72
2022-09-06T01:39:25.040Z,2.60
2022-09-06T01:44:26.272Z,2.67
2022-09-06T01:49:43.123Z,2.53
2022-09-06T01:54:44.388Z,2.30
2022-09-06T02:00:09.239Z,2.90
2022-09-06T02:05:22.121Z,2.53
2022-09-06T02:10:44.888Z,2.55
2022-09-06T02:15:56.951Z,2.30
2022-09-06T02:20:56.343Z,3.08
2022-09-06T02:25:58.162Z,3.70
2022-09-06T02:30:58.733Z,2.00
2022-09-06T02:36:01.907Z,1.48
2022-09-06T02:41:00.155Z,1.70
2022-09-06T02:45:58.696Z,1.98
2022-09-06T02:51:07.370Z,1.35
2022-09-06T02:56:05.211Z,2.15
2022-09-06T03:01:04.308Z,2.58
2022-09-06T03:06:01.966Z,2.35
2022-09-06T03:11:00.280Z,1.80
2022-09-06T03:15:59.989Z,1.65
2022-09-06T03:20:58.902Z,2.10
2022-09-06T03:25:57.583Z,1.88
2022-09-06T03:30:56.109Z,1.88
2022-09-06T03:35:55.618Z,2.08
2022-09-06T03:40:54.536Z,2.63
2022-09-06T03:45:55.942Z,1.52
2022-09-06T03:50:56.583Z,1.83
2022-09-06T03:55:56.092Z,1.63
2022-09-06T04:01:08.767Z,2.10
2022-09-06T04:06:07.734Z,2.15
2022-09-06T04:11:05.492Z,2.28
2022-09-06T04:16:06.486Z,1.92
2022-09-06T04:21:04.374Z,2.25
2022-09-06T04:26:01.849Z,2.10
2022-09-06T04:31:04.996Z,1.73
2022-09-06T04:36:07.714Z,1.98
2022-09-06T04:41:07.431Z,2.72
2022-09-06T04:46:27.984Z,2.58
2022-09-06T04:51:25.854Z,2.10
2022-09-06T04:56:26.602Z,2.28
2022-09-06T05:01:26.522Z,2.55
2022-09-06T05:06:25.424Z,2.15
2022-09-06T05:11:24.454Z,2.10
2022-09-06T05:16:22.918Z,1.75
2022-09-06T05:21:21.427Z,2.03
2022-09-06T05:26:19.918Z,1.65
2022-09-06T05:31:27.055Z,2.05
2022-09-06T05:36:25.989Z,2.50
2022-09-06T05:41:24.606Z,2.75
2022-09-06T05:46:23.091Z,1.80
2022-09-06T05:51:20.597Z,2.10
2022-09-06T05:56:19.417Z,2.15
2022-09-06T06:01:22.497Z,2.58
2022-09-06T06:06:21.237Z,1.40
2022-09-06T06:11:19.527Z,1.60
2022-09-06T06:16:20.046Z,2.10
2022-09-06T06:21:23.114Z,2.45
2022-09-06T06:26:21.000Z,2.28
2022-09-06T06:31:21.380Z,2.78
2022-09-06T06:36:18.802Z,2.60
2022-09-06T06:41:19.461Z,2.67
2022-09-06T06:46:19.413Z,2.38
2022-09-06T06:51:20.496Z,3.13
2022-09-06T06:56:22.346Z,2.50
2022-09-06T07:01:22.326Z,2.55
2022-09-06T07:11:43.607Z,2.42
2022-09-06T07:16:41.276Z,2.88
2022-09-06T07:21:40.109Z,2.63
2022-09-06T07:32:11.640Z,2.00
2022-09-06T07:37:12.300Z,2.20
2022-09-06T07:42:10.986Z,2.33
2022-09-06T07:58:01.664Z,2.38
2022-09-06T08:03:00.383Z,3.08
2022-09-06T08:13:19.101Z,2.70
2022-09-06T08:18:17.281Z,2.40
2022-09-06T08:23:15.086Z,2.67
2022-09-06T08:28:18.574Z,1.85
2022-09-06T08:33:16.354Z,1.73
2022-09-06T08:38:18.165Z,1.90
2022-09-06T08:43:20.181Z,2.28
2022-09-06T08:48:19.353Z,2.20
2022-09-06T08:53:21.987Z,1.80
2022-09-06T08:58:29.869Z,1.90
2022-09-06T09:03:34.493Z,2.10
2022-09-06T09:08:45.103Z,2.08
2022-09-06T09:14:08.294Z,2.80
2022-09-06T09:19:07.079Z,1.52
2022-09-06T09:24:09.978Z,1.55
2022-09-06T09:29:13.190Z,2.10
2022-09-06T09:34:17.503Z,2.08
2022-09-06T09:39:15.520Z,1.60
2022-09-06T09:44:28.323Z,1.83
2022-09-06T09:49:25.866Z,2.43
2022-09-06T09:54:34.494Z,2.22
2022-09-06T09:59:43.692Z,2.30
2022-09-06T10:04:53.068Z,1.52
2022-09-06T10:10:05.528Z,1.70
2022-09-06T10:15:07.432Z,2.42
2022-09-06T10:20:11.070Z,1.60
2022-09-06T10:25:49.716Z,1.83
2022-09-06T10:31:13.491Z,3.33
2022-09-06T10:36:17.027Z,2.85
2022-09-06T10:41:34.921Z,1.95
2022-09-06T10:46:35.030Z,2.40
2022-09-06T10:51:46.248Z,2.30
2022-09-06T10:56:50.533Z,1.98
2022-09-06T11:02:02.450Z,2.20
2022-09-06T11:07:05.325Z,2.83
2022-09-06T11:12:02.673Z,2.30
2022-09-06T11:17:05.123Z,4.68
2022-09-06T11:22:09.485Z,2.53
2022-09-06T11:27:20.568Z,2.85
2022-09-06T11:32:34.617Z,1.70
2022-09-06T11:37:44.930Z,2.58
2022-09-06T11:42:46.304Z,1.98
2022-09-06T11:47:45.680Z,2.03
2022-09-06T11:52:59.565Z,2.13
2022-09-06T11:58:00.302Z,2.80
2022-09-06T12:08:32.659Z,2.30
2022-09-06T12:14:03.245Z,1.77
2022-09-06T12:19:01.819Z,2.08
2022-09-06T12:24:31.303Z,1.58
2022-09-06T12:29:29.345Z,2.15
2022-09-06T12:34:31.982Z,2.22
2022-09-06T12:39:30.396Z,1.92
2022-09-06T12:44:34.935Z,2.17
2022-09-06T12:49:33.445Z,1.90
2022-09-06T12:54:32.475Z,2.55
2022-09-06T12:59:30.179Z,2.30
2022-09-06T13:04:28.214Z,2.20
2022-09-06T13:09:27.784Z,2.58
2022-09-06T13:14:28.268Z,2.40
2022-09-06T13:19:42.983Z,2.70
2022-09-06T13:25:08.068Z,2.22
2022-09-06T13:30:10.371Z,2.78
2022-09-06T13:35:10.563Z,2.27
2022-09-06T13:41:11.533Z,2.25
2022-09-06T13:46:16.444Z,2.13
2022-09-06T13:51:14.547Z,2.28
2022-09-06T13:56:12.966Z,2.10
2022-09-06T14:01:11.779Z,2.22
2022-09-06T14:06:10.823Z,2.10
2022-09-06T14:11:09.502Z,2.08
2022-09-06T14:16:07.340Z,2.38
2022-09-06T14:21:05.858Z,2.22
2022-09-06T14:26:04.745Z,3.20
2022-09-06T14:31:12.267Z,2.83
2022-09-06T14:36:17.175Z,2.38
2022-09-06T14:41:16.569Z,2.22
2022-09-06T14:46:15.942Z,2.72
2022-09-06T14:51:22.223Z,2.13
2022-09-06T14:56:22.610Z,2.45
2022-09-06T15:01:23.457Z,3.40
2022-09-06T15:06:22.970Z,2.72
2022-09-06T15:11:52.256Z,2.33
2022-09-06T15:16:55.948Z,2.38
2022-09-06T15:21:55.790Z,2.95
2022-09-06T15:26:54.487Z,2.50
2022-09-06T15:31:54.705Z,2.63
2022-09-06T15:36:53.842Z,2.53
2022-09-06T15:42:01.303Z,2.65
2022-09-06T15:47:02.116Z,2.15
2022-09-06T15:52:09.531Z,2.63
2022-09-06T15:57:08.915Z,2.40
2022-09-06T16:02:08.660Z,5.88
2022-09-06T16:07:07.340Z,3.22
2022-09-06T16:12:05.465Z,2.53
2022-09-06T16:17:03.944Z,2.97
2022-09-06T16:22:02.703Z,2.97
2022-09-06T16:27:04.106Z,2.85
2022-09-06T16:32:02.147Z,2.75
2022-09-06T16:37:01.290Z,2.90
2022-09-06T16:42:00.402Z,2.88
2022-09-06T16:47:04.288Z,2.72
2022-09-06T16:52:04.693Z,2.80
2022-09-06T16:57:06.242Z,3.40
2022-09-06T17:02:04.103Z,3.20
2022-09-06T17:07:03.295Z,3.80
2022-09-06T17:12:03.942Z,3.58
2022-09-06T17:17:05.578Z,3.45
2022-09-06T17:22:13.811Z,4.30
2022-09-06T17:27:12.398Z,6.03
2022-09-06T17:32:14.703Z,6.25
2022-09-06T17:37:16.571Z,5.75
2022-09-06T17:42:20.175Z,6.07
2022-09-06T17:47:40.670Z,7.30
2022-09-06T17:52:43.142Z,8.15
2022-09-06T17:57:54.036Z,7.00
2022-09-06T18:02:55.537Z,6.30
2022-09-06T18:07:53.499Z,6.60
2022-09-06T18:12:56.794Z,6.35
2022-09-06T18:17:54.888Z,8.32
2022-09-06T18:23:18.820Z,9.88
2022-09-06T18:28:23.586Z,8.55
2022-09-06T18:33:26.043Z,5.90
2022-09-06T18:38:34.144Z,5.38
2022-09-06T18:43:46.017Z,5.85
2022-09-06T18:48:47.430Z,5.43
2022-09-06T18:53:46.972Z,5.20
2022-09-06T18:58:49.156Z,4.75
2022-09-06T19:03:48.044Z,4.88
2022-09-06T19:08:49.821Z,6.22
2022-09-06T19:13:51.520Z,5.85
2022-09-06T19:19:06.406Z,5.75
2022-09-06T19:24:08.054Z,5.25
2022-09-06T19:29:13.347Z,4.60
2022-09-06T19:34:13.882Z,4.07
2022-09-06T19:39:14.838Z,4.20
2022-09-06T19:44:17.830Z,4.90
2022-09-06T19:49:19.799Z,4.63
2022-09-06T19:54:18.965Z,3.78
2022-09-06T19:59:20.654Z,3.60
2022-09-06T20:04:22.761Z,3.67
2022-09-06T20:09:24.490Z,2.88
2022-09-06T20:14:29.422Z,2.60
2022-09-06T20:19:30.759Z,1.95
2022-09-06T20:24:30.616Z,1.58
2022-09-06T20:29:30.472Z,1.48
2022-09-06T20:34:31.223Z,1.42
2022-09-06T20:39:32.304Z,1.52
2022-09-06T20:44:29.920Z,1.70
2022-09-06T20:49:53.674Z,1.55
2022-09-06T20:54:57.435Z,1.75
2022-09-06T20:59:55.444Z,1.40
2022-09-06T21:04:57.511Z,1.25
2022-09-06T21:09:55.736Z,1.30
2022-09-06T21:15:25.727Z,1.55
2022-09-06T21:20:29.446Z,1.20
2022-09-06T21:25:31.937Z,1.40
2022-09-06T21:30:35.467Z,1.10
2022-09-06T21:35:35.195Z,1.10
2022-09-06T21:40:41.271Z,1.42
2022-09-06T21:45:43.424Z,1.20
2022-09-06T21:50:53.733Z,1.20
2022-09-06T21:55:55.409Z,0.90
2022-09-06T22:01:01.474Z,1.45
2022-09-06T22:05:59.789Z,1.10
2022-09-06T22:11:11.178Z,0.82
2022-09-06T22:16:23.392Z,1.08
2022-09-06T22:21:26.102Z,1.08
2022-09-06T22:26:39.388Z,2.10
2022-09-06T22:31:46.929Z,2.17
2022-09-06T22:36:45.556Z,1.10
2022-09-06T22:41:46.039Z,2.30
2022-09-06T22:46:45.437Z,1.02
2022-09-06T22:51:43.611Z,1.05
2022-09-06T22:56:44.742Z,1.42
2022-09-06T23:01:45.854Z,0.95
2022-09-06T23:06:44.956Z,1.10
2022-09-06T23:11:53.470Z,1.02
2022-09-06T23:16:54.181Z,1.17
2022-09-06T23:21:51.874Z,1.10
2022-09-06T23:26:49.363Z,0.90
2022-09-06T23:31:49.602Z,0.95
2022-09-06T23:36:50.743Z,1.00
2022-09-06T23:41:55.251Z,1.20
2022-09-06T23:46:54.303Z,1.05
2022-09-06T23:51:54.030Z,0.82
2022-09-06T23:56:53.093Z,1.05
